Time;durP1;ratioP1;P1;durP2;ratioP2;P2;SDS_P1;SDS_P2;PMS_P1;PMS_P2;Temp;Humidity;BMP_temperature;BMP_pressure;BME280_temperature;BME280_humidity;BME280_pressure;Samples;Min_cycle;Max_cycle;Signal;HPM_P1;HPM_P2
2022/11/16 00:02:12;;;;;;;1999.90;999.90;;;12.30;99.90;;;;;;4975836;28;20200;-69
2022/11/16 00:04:38;;;;;;;1999.90;999.90;;;12.30;99.90;;;;;;4974634;28;20427;-69
2022/11/16 00:07:05;;;;;;;1999.90;999.90;;;12.40;99.90;;;;;;4974356;28;20874;-69
2022/11/16 00:09:31;;;;;;;1999.90;999.90;;;12.40;99.90;;;;;;4974573;28;20536;-70
2022/11/16 00:12:00;;;;;;;1999.90;999.90;;;12.40;99.90;;;;;;4974490;28;20425;-70
2022/11/16 00:14:33;;;;;;;1999.90;999.90;;;12.40;99.90;;;;;;4974328;28;20438;-69
2022/11/16 00:16:59;;;;;;;1999.90;999.90;;;12.40;99.90;;;;;;4974417;28;20417;-70
2022/11/16 00:19:26;;;;;;;1999.90;999.90;;;12.40;99.90;;;;;;4974340;28;20905;-69
2022/11/16 00:21:52;;;;;;;1999.90;999.90;;;12.40;99.90;;;;;;4974265;28;20455;-69
2022/11/16 00:24:19;;;;;;;1999.90;999.90;;;12.40;99.90;;;;;;4974012;28;20430;-69
2022/11/16 00:26:45;;;;;;;1999.90;999.90;;;12.40;99.90;;;;;;4974042;28;20482;-69
2022/11/16 00:29:29;;;;;;;1999.90;999.90;;;12.40;99.90;;;;;;4977454;28;20452;-70
2022/11/16 00:31:54;;;;;;;1999.90;999.90;;;12.40;99.90;;;;;;4975485;28;20440;-69
2022/11/16 00:34:21;;;;;;;1999.90;999.90;;;12.40;99.90;;;;;;4973982;28;20453;-69
2022/11/16 00:36:47;;;;;;;1999.90;999.90;;;12.40;99.90;;;;;;4973753;28;20222;-69
2022/11/16 00:39:14;;;;;;;1999.90;999.90;;;12.40;99.90;;;;;;4973897;28;20819;-70
2022/11/16 00:41:41;;;;;;;1999.90;999.90;;;12.40;99.90;;;;;;4973332;28;21035;-69
2022/11/16 00:44:06;;;;;;;1999.90;999.90;;;12.40;99.90;;;;;;4973759;28;20429;-70
2022/11/16 00:46:32;;;;;;;1999.90;999.90;;;12.50;99.90;;;;;;4973793;28;20793;-70
2022/11/16 00:48:58;;;;;;;1999.90;999.90;;;12.40;99.90;;;;;;4973633;28;20183;-69
2022/11/16 00:51:23;;;;;;;1999.90;999.90;;;12.40;99.90;;;;;;4973802;28;20258;-69
2022/11/16 00:53:49;;;;;;;1999.90;999.90;;;12.40;99.90;;;;;;4973746;28;20195;-70
2022/11/16 00:56:14;;;;;;;1999.90;999.90;;;12.40;99.90;;;;;;4973945;28;20183;-69
2022/11/16 00:58:40;;;;;;;1999.90;999.90;;;12.40;99.90;;;;;;4973551;28;20594;-69
2022/11/16 01:01:08;;;;;;;1999.90;999.90;;;12.40;99.90;;;;;;4973719;28;20203;-70
2022/11/16 01:03:35;;;;;;;1999.90;999.90;;;12.40;99.90;;;;;;4973551;28;20233;-70
2022/11/16 01:06:05;;;;;;;1999.90;999.90;;;12.40;99.90;;;;;;4973682;28;20903;-70
2022/11/16 01:08:31;;;;;;;1999.90;999.90;;;12.40;99.90;;;;;;4973408;28;20464;-70
2022/11/16 01:12:07;;;;;;;1999.90;999.90;;;12.40;99.90;;;;;;4973668;28;20780;-69
2022/11/16 01:13:43;;;;;;;1999.90;999.90;;;12.40;99.90;;;;;;4973374;28;20445;-69
2022/11/16 01:16:14;;;;;;;1999.90;999.90;;;12.40;99.90;;;;;;4979355;28;20417;-70
2022/11/16 01:18:39;;;;;;;1999.90;999.90;;;12.40;99.90;;;;;;4982472;28;20445;-70
2022/11/16 01:21:06;;;;;;;1999.90;999.90;;;12.40;99.90;;;;;;4972664;28;20458;-69
2022/11/16 01:23:32;;;;;;;1999.90;999.90;;;12.30;99.90;;;;;;4973288;28;20198;-70
2022/11/16 01:26:00;;;;;;;1999.90;999.90;;;12.30;99.90;;;;;;4973233;28;20410;-70
2022/11/16 01:28:28;;;;;;;1999.90;999.90;;;12.40;99.90;;;;;;4973383;28;20422;-70
2022/11/16 01:30:54;;;;;;;1999.90;999.90;;;12.40;99.90;;;;;;4973597;28;20453;-70
2022/11/16 01:33:20;;;;;;;1999.90;999.90;;;12.30;99.90;;;;;;4973561;28;20479;-70
2022/11/16 01:35:45;;;;;;;1999.90;999.90;;;12.30;99.90;;;;;;4973927;28;20218;-70
2022/11/16 01:38:11;;;;;;;1999.90;999.90;;;12.30;99.90;;;;;;4974979;28;20453;-70
2022/11/16 01:40:37;;;;;;;1999.90;999.90;;;12.30;99.90;;;;;;4975072;28;20237;-70
2022/11/16 01:43:02;;;;;;;1999.90;999.90;;;12.20;99.90;;;;;;4974808;28;20194;-69
2022/11/16 01:45:36;;;;;;;1999.90;999.90;;;12.30;99.90;;;;;;4974876;28;20413;-70
2022/11/16 01:48:02;;;;;;;1999.90;999.90;;;12.30;99.90;;;;;;4975185;28;20166;-70
2022/11/16 01:50:28;;;;;;;1999.90;999.90;;;12.30;99.90;;;;;;4974783;28;20423;-69
2022/11/16 01:53:01;;;;;;;1999.90;999.90;;;12.30;99.90;;;;;;4975725;28;20598;-69
2022/11/16 01:55:29;;;;;;;1999.90;999.90;;;12.20;99.90;;;;;;4978953;28;20405;-69
2022/11/16 01:57:55;;;;;;;1999.90;999.90;;;12.20;99.90;;;;;;4978346;28;20892;-69
2022/11/16 02:00:21;;;;;;;1999.90;999.90;;;12.20;99.90;;;;;;4978118;28;20503;-70
2022/11/16 02:02:47;;;;;;;1999.90;999.90;;;12.20;99.90;;;;;;4979769;28;20477;-70
2022/11/16 02:05:20;;;;;;;1999.90;999.90;;;12.20;99.90;;;;;;4982549;28;20402;-70
2022/11/16 02:10:55;;;;;;;1999.90;999.90;;;12.10;99.90;;;;;;4962131;28;20414;-70
2022/11/16 02:14:09;;;;;;;1999.90;999.90;;;12.20;99.90;;;;;;4960645;28;21031;-70
2022/11/16 02:16:57;;;;;;;1999.90;999.90;;;12.30;99.90;;;;;;4955452;28;20418;-69
2022/11/16 02:20:11;;;;;;;1999.90;999.90;;;12.20;99.90;;;;;;4958725;28;20442;-69
2022/11/16 02:23:08;;;;;;;1999.90;999.90;;;12.20;99.90;;;;;;4960904;28;20809;-69
2022/11/16 02:25:55;;;;;;;1999.90;999.90;;;12.10;99.90;;;;;;4962158;28;20779;-71
2022/11/16 02:28:44;;;;;;;1999.90;999.90;;;12.10;99.90;;;;;;4965490;28;20407;-71
2022/11/16 02:31:16;;;;;;;1999.90;999.90;;;12.10;99.90;;;;;;4964517;28;20439;-70
2022/11/16 02:33:44;;;;;;;1999.90;999.90;;;12.10;99.90;;;;;;4944621;29;20498;-70
2022/11/16 02:36:14;;;;;;;1999.90;999.90;;;12.10;99.90;;;;;;4961426;29;20419;-70
2022/11/16 02:38:45;;;;;;;1999.90;999.90;;;12.10;99.90;;;;;;4959272;28;20897;-69
2022/11/16 02:41:16;;;;;;;1999.90;999.90;;;12.10;99.90;;;;;;4958963;29;20450;-70
2022/11/16 02:43:46;;;;;;;1999.90;999.90;;;12.10;99.90;;;;;;4961827;28;20428;-70
2022/11/16 02:46:18;;;;;;;1999.90;999.90;;;12.20;99.90;;;;;;4964387;28;20403;-69
2022/11/16 02:48:49;;;;;;;1999.90;999.90;;;12.20;99.90;;;;;;4956562;28;20431;-69
2022/11/16 02:51:16;;;;;;;1999.90;999.90;;;12.20;99.90;;;;;;4961332;28;20546;-70
2022/11/16 02:54:11;;;;;;;1999.90;999.90;;;12.20;99.90;;;;;;4959224;28;20542;-69
2022/11/16 02:57:03;;;;;;;1999.90;999.90;;;12.20;99.90;;;;;;4960117;28;20419;-69
2022/11/16 02:59:49;;;;;;;1999.90;999.90;;;12.20;99.90;;;;;;4957961;28;20517;-69
2022/11/16 03:02:26;;;;;;;1999.90;999.90;;;12.10;99.90;;;;;;4956479;28;20546;-69
2022/11/16 03:05:06;;;;;;;1999.90;999.90;;;12.10;99.90;;;;;;4955541;28;20455;-69
2022/11/16 03:07:57;;;;;;;1999.90;999.90;;;12.10;99.90;;;;;;4956234;29;20399;-70
2022/11/16 03:13:11;;;;;;;1999.90;999.90;;;12.30;99.90;;;;;;4963040;28;20554;-69
2022/11/16 03:15:40;;;;;;;1999.90;999.90;;;12.30;99.90;;;;;;4963370;29;20419;-70
2022/11/16 03:18:07;;;;;;;1999.90;999.90;;;12.30;99.90;;;;;;4964778;28;20427;-69
2022/11/16 03:20:34;;;;;;;1999.90;999.90;;;12.30;99.90;;;;;;4965929;28;20844;-69
2022/11/16 03:23:04;;;;;;;1999.90;999.90;;;12.30;99.90;;;;;;4964869;28;20522;-70
2022/11/16 03:25:37;;;;;;;1999.90;999.90;;;12.30;99.90;;;;;;4961440;28;20439;-69
2022/11/16 03:28:11;;;;;;;1999.90;999.90;;;12.30;99.90;;;;;;4964542;28;20474;-70
2022/11/16 03:30:41;;;;;;;1999.90;999.90;;;12.20;99.90;;;;;;4966707;29;20419;-70
2022/11/16 03:33:21;;;;;;;1999.90;999.90;;;12.30;99.90;;;;;;4965783;28;20475;-69
2022/11/16 03:36:02;;;;;;;1999.90;999.90;;;12.20;99.90;;;;;;4955859;28;20418;-69
2022/11/16 03:38:30;;;;;;;1999.90;999.90;;;12.20;99.90;;;;;;4957356;28;20411;-69
2022/11/16 03:41:01;;;;;;;1999.90;999.90;;;12.10;99.90;;;;;;4957459;28;20455;-69
2022/11/16 03:43:29;;;;;;;1999.90;999.90;;;12.10;99.90;;;;;;4964696;28;20430;-69
2022/11/16 03:45:56;;;;;;;1999.90;999.90;;;12.10;99.90;;;;;;4963930;28;20432;-70
2022/11/16 03:48:21;;;;;;;1999.90;999.90;;;12.20;99.90;;;;;;4961469;28;20442;-70
2022/11/16 03:50:48;;;;;;;1999.90;999.90;;;12.30;99.90;;;;;;4961429;29;20419;-70
2022/11/16 03:53:13;;;;;;;1999.90;999.90;;;12.30;99.90;;;;;;4962177;28;20200;-69
2022/11/16 03:55:39;;;;;;;1999.90;999.90;;;12.30;99.90;;;;;;4956395;29;20439;-70
2022/11/16 03:58:05;;;;;;;1999.90;999.90;;;12.30;99.90;;;;;;4957135;29;20207;-69
2022/11/16 04:00:30;;;;;;;1999.90;999.90;;;12.30;99.90;;;;;;4956975;28;20204;-69
2022/11/16 04:02:56;;;;;;;1999.90;999.90;;;12.30;99.90;;;;;;4955278;28;20191;-69
2022/11/16 04:25:03;;;;;;;1999.90;999.90;;;12.10;99.90;;;;;;4955900;28;20405;-70
2022/11/16 04:30:14;;;;;;;1999.90;999.90;;;12.10;99.90;;;;;;4956661;28;20408;-70
2022/11/16 04:38:08;;;;;;;1999.90;999.90;;;12.10;99.90;;;;;;4954500;29;20413;-69
2022/11/16 04:40:33;;;;;;;1999.90;999.90;;;12.10;99.90;;;;;;4954668;29;20421;-69
2022/11/16 04:43:02;;;;;;;1999.90;999.90;;;12.10;99.90;;;;;;4955214;28;20820;-70
2022/11/16 04:48:13;;;;;;;1999.90;999.90;;;12.20;99.90;;;;;;4956661;28;20410;-69
2022/11/16 04:50:39;;;;;;;1999.90;999.90;;;12.20;99.90;;;;;;4955816;28;20407;-69
2022/11/16 04:53:06;;;;;;;1999.90;999.90;;;12.10;99.90;;;;;;4954339;28;21013;-69
2022/11/16 04:55:32;;;;;;;1999.90;999.90;;;12.10;99.90;;;;;;4954513;28;20437;-69
2022/11/16 04:57:58;;;;;;;1999.90;999.90;;;12.10;99.90;;;;;;4955365;29;20422;-69
2022/11/16 05:00:24;;;;;;;1999.90;999.90;;;12.10;99.90;;;;;;4956024;28;20858;-69
2022/11/16 05:02:49;;;;;;;1999.90;999.90;;;12.20;99.90;;;;;;4954265;28;20459;-69
2022/11/16 05:05:15;;;;;;;1999.90;999.90;;;12.20;99.90;;;;;;4954303;28;20901;-69
2022/11/16 05:07:41;;;;;;;1999.90;999.90;;;12.10;99.90;;;;;;4953994;28;20649;-69
2022/11/16 05:10:07;;;;;;;1999.90;999.90;;;12.10;99.90;;;;;;4954468;28;20430;-69
2022/11/16 05:12:34;;;;;;;1999.90;999.90;;;12.00;99.90;;;;;;4954142;28;20415;-69
2022/11/16 05:14:59;;;;;;;1999.90;999.90;;;12.00;99.90;;;;;;4954227;28;20417;-69
2022/11/16 05:17:26;;;;;;;1999.90;999.90;;;11.90;99.90;;;;;;4954002;29;20510;-69
2022/11/16 05:22:36;;;;;;;1999.90;999.90;;;11.80;99.90;;;;;;4964809;28;20485;-69
2022/11/16 05:25:03;;;;;;;1999.90;999.90;;;11.80;99.90;;;;;;4962570;29;20937;-69
2022/11/16 05:27:29;;;;;;;1999.90;999.90;;;11.70;99.90;;;;;;4953689;28;20948;-69
2022/11/16 05:29:55;;;;;;;1999.90;999.90;;;11.70;99.90;;;;;;4953702;28;20415;-69
2022/11/16 05:32:22;;;;;;;1999.90;999.90;;;11.70;99.90;;;;;;4955167;28;20183;-69
2022/11/16 05:34:47;;;;;;;1999.90;999.90;;;11.60;99.90;;;;;;4954697;28;20804;-69
2022/11/16 05:37:14;;;;;;;1999.90;999.90;;;11.50;99.90;;;;;;4953631;29;20461;-69
2022/11/16 05:39:40;;;;;;;1999.90;999.90;;;11.50;99.90;;;;;;4953896;28;20183;-69
2022/11/16 05:42:06;;;;;;;1999.90;999.90;;;11.50;99.90;;;;;;4953810;28;20946;-70
2022/11/16 05:44:32;;;;;;;1999.90;999.90;;;11.60;99.90;;;;;;4952686;28;20425;-68
2022/11/16 05:46:58;;;;;;;1999.90;999.90;;;11.50;99.90;;;;;;4953320;29;20773;-70
2022/11/16 05:49:24;;;;;;;1999.90;999.90;;;11.50;99.90;;;;;;4952597;28;20201;-69
2022/11/16 05:51:50;;;;;;;1999.90;999.90;;;11.40;99.90;;;;;;4953726;28;20417;-69
2022/11/16 05:54:21;;;;;;;1999.90;999.90;;;11.50;99.90;;;;;;4953745;28;20442;-69
2022/11/16 05:56:48;;;;;;;1999.90;999.90;;;11.50;99.90;;;;;;4953635;28;20178;-69
2022/11/16 05:59:16;;;;;;;1999.90;999.90;;;11.40;99.90;;;;;;4953646;28;20413;-70
2022/11/16 06:01:42;;;;;;;1999.90;999.90;;;11.50;99.90;;;;;;4936406;28;20461;-71
2022/11/16 06:04:08;;;;;;;1999.90;999.90;;;11.50;99.90;;;;;;4953551;28;20514;-71
2022/11/16 06:06:35;;;;;;;1999.90;999.90;;;11.50;99.90;;;;;;4953526;28;20408;-70
2022/11/16 06:09:01;;;;;;;1999.90;999.90;;;11.50;99.90;;;;;;4953516;28;20758;-70
2022/11/16 06:11:27;;;;;;;1999.90;999.90;;;11.40;99.90;;;;;;4953646;28;20521;-70
2022/11/16 06:13:52;;;;;;;1999.90;999.90;;;11.40;99.90;;;;;;4961014;28;20454;-69
2022/11/16 06:16:18;;;;;;;1999.90;999.90;;;11.30;99.90;;;;;;4964756;28;20422;-68
2022/11/16 06:18:46;;;;;;;1999.90;999.90;;;11.30;99.90;;;;;;4966781;28;20171;-68
2022/11/16 06:21:14;;;;;;;1999.90;999.90;;;11.20;99.90;;;;;;4964452;29;20461;-70
2022/11/16 06:23:40;;;;;;;1999.90;999.90;;;11.20;99.90;;;;;;4953522;28;20430;-70
2022/11/16 06:26:06;;;;;;;1999.90;999.90;;;11.30;99.90;;;;;;4953542;28;20766;-69
2022/11/16 06:28:33;;;;;;;1999.90;999.90;;;11.20;99.90;;;;;;4953380;28;20171;-69
2022/11/16 06:30:58;;;;;;;1999.90;999.90;;;11.20;99.90;;;;;;4953479;28;20439;-69
2022/11/16 06:33:24;;;;;;;1999.90;999.90;;;11.10;99.90;;;;;;4957069;28;20453;-70
2022/11/16 06:35:50;;;;;;;1999.90;999.90;;;11.00;99.90;;;;;;4957594;28;20883;-69
2022/11/16 06:38:19;;;;;;;1999.90;999.90;;;11.00;99.90;;;;;;4953249;28;20640;-70
2022/11/16 06:40:48;;;;;;;1999.90;999.90;;;10.90;99.90;;;;;;4954904;28;20467;-69
2022/11/16 06:43:14;;;;;;;1999.90;999.90;;;10.90;99.90;;;;;;4956800;28;20433;-69
2022/11/16 06:45:39;;;;;;;1999.90;999.90;;;10.90;99.90;;;;;;4958755;28;20824;-69
2022/11/16 06:48:05;;;;;;;1999.90;999.90;;;10.80;99.90;;;;;;4958665;29;20167;-69
2022/11/16 06:50:31;;;;;;;1999.90;999.90;;;10.90;99.90;;;;;;4957215;28;20177;-69
2022/11/16 06:52:59;;;;;;;1999.90;999.90;;;10.80;99.90;;;;;;4958038;28;20648;-69
2022/11/16 06:55:28;;;;;;;1999.90;999.90;;;10.80;99.90;;;;;;4959020;28;20290;-69
2022/11/16 06:57:54;;;;;;;1999.90;999.90;;;10.90;99.90;;;;;;4958049;28;20417;-69
2022/11/16 07:00:19;;;;;;;1999.90;999.90;;;10.80;99.90;;;;;;4958135;28;20409;-69
2022/11/16 07:02:45;;;;;;;1999.90;999.90;;;10.80;99.90;;;;;;4958424;28;20456;-69
2022/11/16 07:05:10;;;;;;;1999.90;999.90;;;10.90;99.90;;;;;;4958020;29;20649;-69
2022/11/16 07:07:36;;;;;;;1999.90;999.90;;;10.80;99.90;;;;;;4957739;29;20172;-69
2022/11/16 07:10:03;;;;;;;1999.90;999.90;;;10.90;99.90;;;;;;4958349;29;20170;-69
2022/11/16 07:12:28;;;;;;;1999.90;999.90;;;10.90;99.90;;;;;;4959001;28;20253;-70
2022/11/16 07:14:54;;;;;;;1999.90;999.90;;;10.90;99.90;;;;;;4966913;28;20441;-70
2022/11/16 07:17:20;;;;;;;1999.90;999.90;;;10.90;99.90;;;;;;4958974;29;20178;-69
2022/11/16 07:19:45;;;;;;;1999.90;999.90;;;10.80;99.90;;;;;;4956121;28;20183;-69
2022/11/16 07:22:11;;;;;;;1999.90;999.90;;;10.90;99.90;;;;;;4959672;29;20199;-70
2022/11/16 07:24:36;;;;;;;1999.90;999.90;;;10.80;99.90;;;;;;4966837;28;20194;-70
2022/11/16 07:27:02;;;;;;;1999.90;999.90;;;10.80;99.90;;;;;;4966823;28;20175;-70
2022/11/16 07:29:28;;;;;;;1999.90;999.90;;;10.70;99.90;;;;;;4963346;28;20249;-69
2022/11/16 07:31:54;;;;;;;1999.90;999.90;;;10.70;99.90;;;;;;4963029;28;20182;-69
2022/11/16 07:49:04;;;;;;;1999.90;999.90;;;10.60;99.90;;;;;;4954878;28;20449;-69
2022/11/16 07:51:31;;;;;;;1999.90;999.90;;;10.60;99.90;;;;;;4948430;28;20426;-69
2022/11/16 07:53:56;;;;;;;1999.90;999.90;;;10.60;99.90;;;;;;4957560;28;20954;-69
2022/11/16 07:56:23;;;;;;;1999.90;999.90;;;10.60;99.90;;;;;;4957489;28;20422;-69
2022/11/16 07:58:48;;;;;;;1999.90;999.90;;;10.50;99.90;;;;;;4956977;28;20233;-70
2022/11/16 08:01:16;;;;;;;1999.90;999.90;;;10.50;99.90;;;;;;4955364;28;20483;-69
2022/11/16 08:03:44;;;;;;;1999.90;999.90;;;10.50;99.90;;;;;;4966353;28;20441;-70
2022/11/16 08:06:16;;;;;;;1999.90;999.90;;;10.30;99.90;;;;;;4957169;28;20413;-69
2022/11/16 08:08:42;;;;;;;1999.90;999.90;;;10.30;99.90;;;;;;4955111;28;20415;-69
2022/11/16 08:11:09;;;;;;;1999.90;999.90;;;10.40;99.90;;;;;;4963927;28;20413;-69
2022/11/16 08:13:37;;;;;;;1999.90;999.90;;;10.40;99.90;;;;;;4964971;28;20475;-69
2022/11/16 08:16:06;;;;;;;1999.90;999.90;;;10.50;99.90;;;;;;4958185;29;20425;-69
2022/11/16 08:18:32;;;;;;;1999.90;999.90;;;10.50;99.90;;;;;;4956399;28;20443;-69
2022/11/16 08:20:58;;;;;;;1999.90;999.90;;;10.60;99.90;;;;;;4957073;28;20449;-70
2022/11/16 08:23:24;;;;;;;1999.90;999.90;;;10.60;99.90;;;;;;4957344;28;20856;-69
2022/11/16 08:25:50;;;;;;;1999.90;999.90;;;10.70;99.90;;;;;;4962353;28;20424;-68
2022/11/16 08:28:16;;;;;;;1999.90;999.90;;;10.60;99.90;;;;;;4964410;29;20173;-69
2022/11/16 08:30:41;;;;;;;1999.90;999.90;;;10.70;99.90;;;;;;4963806;28;20707;-70
2022/11/16 08:33:08;;;;;;;1999.90;999.90;;;10.70;99.90;;;;;;4956071;28;20482;-69
2022/11/16 08:35:34;;;;;;;1999.90;999.90;;;10.60;99.90;;;;;;4956977;28;20222;-70
2022/11/16 08:38:00;;;;;;;1999.90;999.90;;;10.50;99.90;;;;;;4956268;29;20433;-70
2022/11/16 08:40:27;;;;;;;1999.90;999.90;;;10.60;99.90;;;;;;4955953;28;20413;-69
2022/11/16 08:42:55;;;;;;;1999.90;999.90;;;10.70;99.90;;;;;;4955954;28;20929;-69
2022/11/16 08:45:22;;;;;;;1999.90;999.90;;;10.70;99.90;;;;;;4956656;28;20419;-69
2022/11/16 08:47:48;;;;;;;1999.90;999.90;;;10.80;99.90;;;;;;4956129;29;20951;-69
2022/11/16 08:50:15;;;;;;;1999.90;999.90;;;10.90;99.90;;;;;;4955340;28;20417;-69
2022/11/16 08:52:40;;;;;;;1999.90;999.90;;;11.00;99.90;;;;;;4954745;28;20417;-69
2022/11/16 08:55:06;;;;;;;1999.90;999.90;;;11.00;99.90;;;;;;4957809;28;20438;-69
2022/11/16 08:57:32;;;;;;;1999.90;999.90;;;11.10;99.90;;;;;;4961651;29;20183;-69
2022/11/16 08:59:57;;;;;;;1999.90;999.90;;;11.30;99.90;;;;;;4955930;28;20923;-70
2022/11/16 09:02:24;;;;;;;1999.90;999.90;;;11.40;99.90;;;;;;4955790;28;20222;-69
2022/11/16 09:04:51;;;;;;;1999.90;999.90;;;11.50;99.90;;;;;;4955709;28;20228;-69
2022/11/16 09:07:17;;;;;;;1999.90;999.90;;;11.70;99.90;;;;;;4955781;28;20493;-70
2022/11/16 09:09:43;;;;;;;1999.90;999.90;;;11.70;99.90;;;;;;4954959;29;20975;-69
2022/11/16 09:12:08;;;;;;;1999.90;999.90;;;11.90;99.90;;;;;;4954253;28;20305;-69
2022/11/16 09:14:34;;;;;;;1999.90;999.90;;;11.90;99.90;;;;;;4955130;28;20230;-69
2022/11/16 09:17:00;;;;;;;1999.90;999.90;;;11.90;99.90;;;;;;4955103;29;20258;-69
2022/11/16 09:19:25;;;;;;;1999.90;999.90;;;12.00;99.90;;;;;;4955898;28;20179;-69
2022/11/16 09:21:51;;;;;;;1999.90;999.90;;;12.00;99.90;;;;;;4955617;28;20313;-69
2022/11/16 09:24:18;;;;;;;1999.90;999.90;;;12.00;99.90;;;;;;4954038;28;20590;-69
2022/11/16 09:26:43;;;;;;;1999.90;999.90;;;12.00;99.90;;;;;;4953904;29;20470;-69
2022/11/16 09:29:13;;;;;;;1999.90;999.90;;;12.10;99.90;;;;;;4953626;28;20536;-69
2022/11/16 09:31:39;;;;;;;1999.90;999.90;;;12.10;99.90;;;;;;4953772;28;20217;-69
2022/11/16 09:34:05;;;;;;;1999.90;999.90;;;12.10;99.90;;;;;;4954458;28;20514;-69
2022/11/16 09:36:31;;;;;;;1999.90;999.90;;;12.10;99.90;;;;;;4955312;28;20439;-69
2022/11/16 09:38:57;;;;;;;1999.90;999.90;;;12.10;99.90;;;;;;4955708;28;20167;-69
2022/11/16 09:41:49;;;;;;;1999.90;999.90;;;12.20;99.90;;;;;;4955043;28;20700;-69
2022/11/16 09:44:27;;;;;;;1999.90;999.90;;;12.30;99.90;;;;;;4954794;28;20500;-69
2022/11/16 09:46:56;;;;;;;1999.90;999.90;;;12.30;99.90;;;;;;4955426;28;20410;-69
2022/11/16 09:49:30;;;;;;;1999.90;999.90;;;12.40;99.90;;;;;;4955748;28;20418;-69
2022/11/16 09:52:02;;;;;;;1999.90;999.90;;;12.50;99.90;;;;;;4955917;28;20438;-69
2022/11/16 09:54:33;;;;;;;1999.90;999.90;;;12.60;99.90;;;;;;4955735;28;20433;-69
2022/11/16 09:57:02;;;;;;;1999.90;999.90;;;12.70;99.90;;;;;;4955634;28;21080;-69
2022/11/16 09:59:50;;;;;;;1999.90;999.90;;;12.70;99.90;;;;;;4954657;28;20505;-69
2022/11/16 10:02:42;;;;;;;1999.90;999.90;;;12.70;99.90;;;;;;4963135;29;20467;-69
2022/11/16 10:05:21;;;;;;;1999.90;999.90;;;12.90;99.90;;;;;;4955065;29;20406;-69
2022/11/16 10:07:57;;;;;;;1999.90;999.90;;;13.00;99.90;;;;;;4953465;29;20421;-69
2022/11/16 10:10:55;;;;;;;1999.90;999.90;;;13.00;99.90;;;;;;4953721;28;20774;-69
2022/11/16 10:13:27;;;;;;;1999.90;999.90;;;13.10;99.90;;;;;;4953640;28;20419;-69
2022/11/16 10:16:13;;;;;;;1999.90;999.90;;;13.20;99.90;;;;;;4956754;28;20404;-69
2022/11/16 10:19:11;;;;;;;1999.90;999.90;;;13.20;99.90;;;;;;4957158;28;20770;-69
2022/11/16 10:22:05;;;;;;;1999.90;999.90;;;13.40;99.90;;;;;;4956615;28;20467;-69
2022/11/16 10:24:41;;;;;;;1999.90;999.90;;;13.50;99.90;;;;;;4957661;28;20485;-70
2022/11/16 10:27:38;;;;;;;1999.90;999.90;;;13.60;99.90;;;;;;4959419;29;20437;-69
2022/11/16 10:30:19;;;;;;;1999.90;999.90;;;13.60;99.90;;;;;;4960633;28;20529;-70
2022/11/16 10:32:59;;;;;;;1999.90;999.90;;;13.60;99.90;;;;;;4963323;28;20935;-70
2022/11/16 10:35:24;;;;;;;1999.90;999.90;;;13.70;99.90;;;;;;4958256;28;20935;-69
2022/11/16 10:37:51;;;;;;;1999.90;999.90;;;13.70;99.90;;;;;;4956288;28;20411;-69
2022/11/16 10:40:37;;;;;;;1999.90;999.90;;;13.80;99.90;;;;;;4957275;28;20170;-69
2022/11/16 10:43:22;;;;;;;1999.90;999.90;;;13.80;99.90;;;;;;4958668;28;20944;-69
2022/11/16 10:46:00;;;;;;;1999.90;999.90;;;13.90;99.90;;;;;;4958199;29;20539;-69
2022/11/16 10:48:48;;;;;;;1999.90;999.90;;;13.90;99.90;;;;;;4957727;29;20417;-69
2022/11/16 10:51:14;;;;;;;1999.90;999.90;;;14.10;99.90;;;;;;4958583;28;20419;-70
2022/11/16 10:53:45;;;;;;;1999.90;999.90;;;14.20;99.90;;;;;;4957951;28;20507;-69
2022/11/16 10:56:20;;;;;;;1999.90;999.90;;;14.20;99.90;;;;;;4958281;28;20205;-70
2022/11/16 10:59:00;;;;;;;1999.90;999.90;;;14.30;99.90;;;;;;4957660;28;20436;-69
2022/11/16 11:01:28;;;;;;;1999.90;999.90;;;14.30;99.90;;;;;;4955905;29;20894;-70
2022/11/16 11:03:53;;;;;;;1999.90;999.90;;;14.40;99.90;;;;;;4956467;28;20430;-70
2022/11/16 11:06:23;;;;;;;1999.90;999.90;;;14.40;99.90;;;;;;4957980;29;20419;-69
2022/11/16 11:08:49;;;;;;;1999.90;999.90;;;14.60;99.90;;;;;;4959505;28;20179;-70
2022/11/16 11:14:13;;;;;;;1999.90;999.90;;;15.10;99.90;;;;;;4956202;28;20282;-70
2022/11/16 11:16:40;;;;;;;1999.90;999.90;;;15.60;99.90;;;;;;4955215;28;20750;-69
2022/11/16 11:19:27;;;;;;;1999.90;999.90;;;16.20;99.90;;;;;;4955964;28;20425;-69
2022/11/16 11:21:58;;;;;;;1999.90;999.90;;;16.90;99.90;;;;;;4955779;28;20895;-69
2022/11/16 11:24:24;;;;;;;1999.90;999.90;;;17.50;99.90;;;;;;4955598;28;20426;-69
2022/11/16 11:26:58;;;;;;;1999.90;999.90;;;18.00;99.90;;;;;;4959344;28;20434;-70
2022/11/16 11:29:27;;;;;;;1999.90;999.90;;;18.40;99.90;;;;;;4981794;28;20402;-70
2022/11/16 11:31:56;;;;;;;1999.90;999.90;;;18.90;99.90;;;;;;4983219;28;20411;-70
2022/11/16 11:34:32;;;;;;;1999.90;999.90;;;19.40;99.90;;;;;;4978827;28;20472;-70
2022/11/16 11:37:01;;;;;;;1999.90;999.90;;;19.70;99.90;;;;;;4954889;28;20424;-70
2022/11/16 11:39:32;;;;;;;1999.90;999.90;;;19.90;99.90;;;;;;4954989;29;20829;-70
2022/11/16 11:42:02;;;;;;;1999.90;999.90;;;20.30;99.90;;;;;;4955488;28;20456;-71
2022/11/16 11:45:00;;;;;;;1999.90;999.90;;;20.50;99.90;;;;;;4954893;28;20952;-70
2022/11/16 11:47:32;;;;;;;1999.90;999.90;;;20.30;99.90;;;;;;4955510;28;20455;-71
2022/11/16 11:50:10;;;;;;;1999.90;999.90;;;20.20;99.90;;;;;;4956348;28;20433;-69
2022/11/16 11:52:56;;;;;;;1999.90;999.90;;;20.50;99.90;;;;;;4955089;28;20402;-69
2022/11/16 11:55:22;;;;;;;1999.90;999.90;;;20.60;99.60;;;;;;4955374;28;20803;-69
2022/11/16 11:57:52;;;;;;;1999.90;999.90;;;20.80;99.50;;;;;;4954905;28;20402;-69
2022/11/16 12:00:18;;;;;;;1999.90;999.90;;;20.60;97.90;;;;;;4954859;29;20185;-69
2022/11/16 12:02:56;;;;;;;1999.90;999.90;;;20.80;97.70;;;;;;4954964;29;20531;-70
2022/11/16 12:05:37;;;;;;;1999.90;999.90;;;20.90;95.50;;;;;;4955206;28;20402;-70
2022/11/16 12:08:27;;;;;;;1999.90;999.90;;;20.80;96.70;;;;;;4954353;28;20407;-70
2022/11/16 12:10:56;;;;;;;1999.90;999.90;;;20.30;96.30;;;;;;4955231;28;20440;-70
2022/11/16 12:13:30;;;;;;;1999.90;999.90;;;19.40;99.90;;;;;;4954847;28;20795;-70
2022/11/16 12:16:22;;;;;;;1999.90;999.90;;;18.70;99.90;;;;;;4954459;28;20858;-69
2022/11/16 12:19:19;;;;;;;1999.90;999.90;;;18.40;99.90;;;;;;4953833;28;20411;-70
2022/11/16 12:22:13;;;;;;;1999.90;999.90;;;18.60;99.90;;;;;;4953672;28;20546;-70
2022/11/16 12:25:04;;;;;;;1999.90;999.90;;;19.00;99.90;;;;;;4954680;29;20509;-70
2022/11/16 12:27:42;;;;;;;1999.90;999.90;;;18.60;99.90;;;;;;4954349;28;20402;-70
2022/11/16 12:30:20;;;;;;;1999.90;999.90;;;18.00;99.90;;;;;;4956408;28;20401;-69
2022/11/16 12:33:15;;;;;;;1999.90;999.90;;;17.50;99.90;;;;;;4964121;28;20883;-70
2022/11/16 12:35:53;;;;;;;1999.90;999.90;;;17.20;99.90;;;;;;4963226;28;20407;-70
2022/11/16 12:38:38;;;;;;;1999.90;999.90;;;16.90;99.90;;;;;;4961811;28;20610;-69
2022/11/16 12:41:30;;;;;;;1999.90;999.90;;;16.60;99.90;;;;;;4956279;28;20413;-70
2022/11/16 12:44:16;;;;;;;1999.90;999.90;;;16.50;99.90;;;;;;4953892;28;20437;-69
2022/11/16 12:47:11;;;;;;;1999.90;999.90;;;16.50;99.90;;;;;;4954123;28;20405;-70
2022/11/16 12:50:07;;;;;;;1999.90;999.90;;;16.60;99.90;;;;;;4958472;29;20414;-70
2022/11/16 12:52:50;;;;;;;1999.90;999.90;;;16.80;99.90;;;;;;4957859;28;20467;-70
2022/11/16 12:55:22;;;;;;;1999.90;999.90;;;17.00;99.90;;;;;;4956555;28;20825;-70
2022/11/16 12:58:09;;;;;;;1999.90;999.90;;;17.30;99.90;;;;;;4956598;28;20438;-69
2022/11/16 13:01:14;;;;;;;1999.90;999.90;;;17.70;99.90;;;;;;4955380;29;20418;-70
2022/11/16 13:03:46;;;;;;;1999.90;999.90;;;17.90;99.90;;;;;;4959937;28;20445;-70
2022/11/16 13:06:25;;;;;;;1999.90;999.90;;;17.60;99.90;;;;;;4956298;28;20415;-70
2022/11/16 13:08:54;;;;;;;1999.90;999.90;;;17.20;99.90;;;;;;4956386;29;20428;-70
2022/11/16 13:11:28;;;;;;;1999.90;999.90;;;17.10;99.90;;;;;;4956392;28;20407;-69
2022/11/16 13:13:58;;;;;;;1999.90;999.90;;;16.80;99.90;;;;;;4955068;28;20429;-70
2022/11/16 13:16:24;;;;;;;1999.90;999.90;;;16.50;99.90;;;;;;4953700;28;20408;-72